createdAt,value
2023-02-08T00:01:36.647Z,98952.72
2023-02-08T00:04:03.699Z,98940.28
2023-02-08T00:06:30.816Z,98950.28
2023-02-08T00:08:57.501Z,98940.88
2023-02-08T00:11:24.067Z,98943.59
2023-02-08T00:13:50.539Z,98940.22
2023-02-08T00:16:18.298Z,98947.00
2023-02-08T00:18:46.223Z,98947.97
2023-02-08T00:21:15.943Z,98941.09
2023-02-08T00:23:42.928Z,98935.97
2023-02-08T00:26:09.417Z,98942.88
2023-02-08T00:28:37.011Z,98940.31
2023-02-08T00:31:04.057Z,98936.94
2023-02-08T00:33:30.594Z,98938.50
2023-02-08T00:36:04.664Z,98938.50
2023-02-08T00:38:31.348Z,98935.25
2023-02-08T00:40:57.827Z,98931.81
2023-02-08T00:43:24.437Z,98943.81
2023-02-08T00:45:56.130Z,98931.06
2023-02-08T00:48:22.857Z,98940.47
2023-02-08T00:51:06.401Z,98939.63
2023-02-08T00:53:37.104Z,98932.78
2023-02-08T00:56:03.953Z,98949.78
2023-02-08T00:58:31.348Z,98943.00
2023-02-08T01:00:57.929Z,98948.91
2023-02-08T01:03:25.935Z,98940.38
2023-02-08T01:05:52.964Z,98942.06
2023-02-08T01:08:21.063Z,98943.84
2023-02-08T01:10:48.090Z,98943.06
2023-02-08T01:13:14.613Z,98943.88
2023-02-08T01:15:41.059Z,98942.13
2023-02-08T01:18:07.480Z,98948.91
2023-02-08T01:20:36.857Z,98943.00
2023-02-08T01:23:04.845Z,98945.66
2023-02-08T01:25:31.573Z,98947.38
2023-02-08T01:27:59.115Z,98941.41
2023-02-08T01:30:25.970Z,98945.75
2023-02-08T01:32:52.464Z,98945.75
2023-02-08T01:35:18.981Z,98946.66
2023-02-08T01:37:45.419Z,98944.16
2023-02-08T01:40:12.260Z,98942.41
2023-02-08T01:42:38.667Z,98934.69
2023-02-08T01:45:20.679Z,98940.69
2023-02-08T01:47:51.814Z,98930.53
2023-02-08T01:50:21.574Z,98932.25
2023-02-08T01:52:49.252Z,98931.47
2023-02-08T01:55:26.009Z,98925.50
2023-02-08T01:57:56.608Z,98934.84
2023-02-08T02:00:24.285Z,98934.03
2023-02-08T02:02:55.802Z,98926.34
2023-02-08T02:05:27.277Z,98931.34
2023-02-08T02:07:57.417Z,98931.31
2023-02-08T02:10:33.996Z,98924.56
2023-02-08T02:13:07.682Z,98924.59
2023-02-08T02:15:34.790Z,98924.53
2023-02-08T02:18:02.597Z,98924.50
2023-02-08T02:20:51.728Z,98925.41
2023-02-08T02:23:39.940Z,98926.25
2023-02-08T02:26:26.386Z,98917.72
2023-02-08T02:29:07.933Z,98931.34
2023-02-08T02:31:53.297Z,98925.44
2023-02-08T02:34:28.758Z,98935.66
2023-02-08T02:37:09.013Z,98929.66
2023-02-08T02:39:48.712Z,98937.31
2023-02-08T02:42:46.148Z,98928.03
2023-02-08T02:45:53.586Z,98927.16
2023-02-08T02:48:40.479Z,98927.16
2023-02-08T02:51:15.928Z,98926.38
2023-02-08T02:53:54.045Z,98931.44
2023-02-08T02:56:29.388Z,98937.31
2023-02-08T02:59:01.316Z,98936.50
2023-02-08T03:01:30.115Z,98929.81
2023-02-08T03:04:17.950Z,98935.72
2023-02-08T03:07:07.509Z,98946.81
2023-02-08T03:09:52.228Z,98928.97
2023-02-08T03:12:47.960Z,98938.34
2023-02-08T03:15:28.865Z,98945.97
2023-02-08T03:18:20.444Z,98937.50
2023-02-08T03:21:20.724Z,98934.94
2023-02-08T03:24:00.692Z,98929.88
2023-02-08T03:26:43.996Z,98929.91
2023-02-08T03:29:44.998Z,98939.25
2023-02-08T03:32:40.759Z,98947.75
2023-02-08T03:35:24.073Z,98946.06
2023-02-08T03:37:58.749Z,98944.34
2023-02-08T03:40:46.474Z,98949.47
2023-02-08T03:43:21.726Z,98946.03
2023-02-08T03:45:59.687Z,98936.69
2023-02-08T03:48:27.092Z,98940.97
2023-02-08T03:50:56.906Z,98946.06
2023-02-08T03:53:24.796Z,98935.91
2023-02-08T03:55:58.249Z,98923.97
2023-02-08T03:59:01.617Z,98936.69
2023-02-08T04:01:36.863Z,98931.63
2023-02-08T04:04:03.669Z,98924.81
2023-02-08T04:06:30.193Z,98923.97
2023-02-08T04:09:02.610Z,98926.53
2023-02-08T04:11:29.016Z,98929.06
2023-02-08T04:13:55.445Z,98919.66
2023-02-08T04:16:21.957Z,98914.56
2023-02-08T04:18:48.463Z,98912.03
2023-02-08T04:21:14.965Z,98922.25
2023-02-08T04:23:41.449Z,98927.38
2023-02-08T04:26:08.877Z,98925.69
2023-02-08T04:28:35.468Z,98920.56
2023-02-08T04:31:02.153Z,98924.78
2023-02-08T04:33:29.006Z,98927.34
2023-02-08T04:35:55.707Z,98936.72
2023-02-08T04:38:23.274Z,98925.63
2023-02-08T04:40:49.768Z,98926.50
2023-02-08T04:43:16.199Z,98932.44
2023-02-08T04:45:42.645Z,98929.91
2023-02-08T04:48:11.013Z,98919.69
2023-02-08T04:50:38.521Z,98926.50
2023-02-08T04:53:06.485Z,98925.63
2023-02-08T04:55:33.322Z,98936.69
2023-02-08T04:57:59.960Z,98926.47
2023-02-08T05:00:27.607Z,98932.41
2023-02-08T05:02:54.960Z,98924.75
2023-02-08T05:05:21.568Z,98909.44
2023-02-08T05:07:48.142Z,98926.47
2023-02-08T05:10:16.699Z,98923.03
2023-02-08T05:12:44.321Z,98926.44
2023-02-08T05:15:12.422Z,98925.53
2023-02-08T05:17:40.015Z,98917.94
2023-02-08T05:20:07.269Z,98932.41
2023-02-08T05:22:34.044Z,98937.53
2023-02-08T05:25:00.698Z,98930.78
2023-02-08T05:27:27.289Z,98927.38
2023-02-08T05:29:53.749Z,98934.16
2023-02-08T05:32:20.517Z,98925.66
2023-02-08T05:34:47.757Z,98930.81
2023-02-08T05:37:14.511Z,98923.13
2023-02-08T05:39:41.083Z,98929.91
2023-02-08T05:42:07.583Z,98939.25
2023-02-08T05:44:34.125Z,98923.13
2023-02-08T05:47:00.631Z,98940.13
2023-02-08T05:49:29.969Z,98935.03
2023-02-08T05:51:56.413Z,98934.19
2023-02-08T05:54:22.834Z,98938.41
2023-02-08T05:56:49.286Z,98946.91
2023-02-08T05:59:15.733Z,98945.22
2023-02-08T06:01:42.257Z,98952.91
2023-02-08T06:04:08.717Z,98955.44
2023-02-08T06:06:36.222Z,98944.41
2023-02-08T06:09:02.654Z,98947.78
2023-02-08T06:11:30.340Z,98946.94
2023-02-08T06:13:56.744Z,98957.13
2023-02-08T06:16:23.237Z,98943.53
2023-02-08T06:18:49.712Z,98944.44
2023-02-08T06:21:16.161Z,98952.06
2023-02-08T06:23:42.669Z,98956.28
2023-02-08T06:26:09.093Z,98948.63
2023-02-08T06:28:35.607Z,98954.59
2023-02-08T06:31:02.164Z,98958.84
2023-02-08T06:33:28.662Z,98954.59
2023-02-08T06:35:55.211Z,98957.97
2023-02-08T06:38:21.900Z,98968.19
2023-02-08T06:40:49.389Z,98967.31
2023-02-08T06:43:16.553Z,98974.13
2023-02-08T06:45:47.044Z,98971.56
2023-02-08T06:48:14.135Z,98956.34
2023-02-08T06:50:40.835Z,98969.03
2023-02-08T06:53:08.746Z,98980.09
2023-02-08T06:55:35.205Z,98963.94
2023-02-08T06:58:01.653Z,98974.09
2023-02-08T07:00:28.169Z,98969.00
2023-02-08T07:02:54.847Z,98974.94
2023-02-08T07:05:21.259Z,98963.78
2023-02-08T07:07:48.939Z,98960.75
2023-02-08T07:10:16.441Z,98959.41
2023-02-08T07:12:43.029Z,98949.13
2023-02-08T07:15:10.145Z,98957.81
2023-02-08T07:17:36.612Z,98945.22
2023-02-08T07:20:03.542Z,98949.38
2023-02-08T07:22:30.078Z,98953.91
2023-02-08T07:24:59.668Z,98954.59
2023-02-08T07:27:26.207Z,98948.38
2023-02-08T07:29:52.693Z,98959.13
2023-02-08T07:32:19.236Z,98954.41
2023-02-08T07:34:46.530Z,98953.25
2023-02-08T07:37:14.195Z,98950.59
2023-02-08T07:39:40.627Z,98949.13
2023-02-08T07:42:09.080Z,98936.81
2023-02-08T07:44:38.028Z,98937.19
2023-02-08T07:47:06.014Z,98944.09
2023-02-08T07:49:33.531Z,98924.94
2023-02-08T07:52:00.883Z,98941.09
2023-02-08T07:54:27.656Z,98947.28
2023-02-08T07:56:54.111Z,98942.59
2023-02-08T07:59:20.956Z,98927.91
2023-02-08T08:01:47.439Z,98930.34
2023-02-08T08:04:14.246Z,98922.56
2023-02-08T08:06:40.748Z,98920.41
2023-02-08T08:09:07.200Z,98928.53
2023-02-08T08:11:33.667Z,98926.91
2023-02-08T08:14:00.097Z,98919.03
2023-02-08T08:16:27.646Z,98920.47
2023-02-08T08:18:54.306Z,98920.31
2023-02-08T08:21:20.845Z,98920.47
2023-02-08T08:23:47.401Z,98914.00
2023-02-08T08:26:19.568Z,98913.56
2023-02-08T08:28:46.784Z,98920.19
2023-02-08T08:31:16.942Z,98923.59
2023-02-08T08:33:44.091Z,98905.97
2023-02-08T08:36:10.700Z,98897.22
2023-02-08T08:38:39.298Z,98898.84
2023-02-08T08:41:10.882Z,98895.16
2023-02-08T08:43:37.387Z,98891.53
2023-02-08T08:46:06.170Z,98889.06
2023-02-08T08:48:34.234Z,98886.75
2023-02-08T08:51:00.740Z,98884.22
2023-02-08T08:53:27.209Z,98895.94
2023-02-08T08:55:53.695Z,98882.97
2023-02-08T08:58:20.181Z,98897.28
2023-02-08T09:00:50.812Z,98895.16
2023-02-08T09:03:17.410Z,98884.84
2023-02-08T09:05:46.708Z,98889.97
2023-02-08T09:08:13.842Z,98897.22
2023-02-08T09:10:41.018Z,98885.06
2023-02-08T09:13:07.929Z,98882.31
2023-02-08T09:15:34.485Z,98887.84
2023-02-08T09:18:01.179Z,98893.13
2023-02-08T09:20:27.669Z,98888.09
2023-02-08T09:22:54.498Z,98898.47
2023-02-08T09:25:22.013Z,98888.13
2023-02-08T09:27:48.616Z,98896.59
2023-02-08T09:30:15.151Z,98892.31
2023-02-08T09:32:41.604Z,98891.47
2023-02-08T09:35:08.451Z,98891.69
2023-02-08T09:37:35.320Z,98888.97
2023-02-08T09:40:02.201Z,98906.81
2023-02-08T09:42:31.311Z,98902.88
2023-02-08T09:45:59.796Z,98906.56
2023-02-08T09:48:36.129Z,98901.78
2023-02-08T09:51:40.831Z,98911.38
2023-02-08T09:54:20.794Z,98903.06
2023-02-08T09:56:50.107Z,98901.28
2023-02-08T09:59:23.054Z,98903.88
2023-02-08T10:01:54.769Z,98901.34
2023-02-08T10:04:36.192Z,98902.66
2023-02-08T10:07:03.982Z,98891.66
2023-02-08T10:09:30.448Z,98892.44
2023-02-08T10:12:21.673Z,98880.88
2023-02-08T10:14:50.741Z,98879.13
2023-02-08T10:17:38.446Z,98867.94
2023-02-08T10:20:10.666Z,98867.25
2023-02-08T10:23:01.556Z,98872.06
2023-02-08T10:25:46.839Z,98867.69
2023-02-08T10:28:31.675Z,98879.84
2023-02-08T10:31:13.436Z,98874.81
2023-02-08T10:33:54.727Z,98874.19
2023-02-08T10:36:26.774Z,98875.44
2023-02-08T10:38:55.852Z,98874.56
2023-02-08T10:41:29.829Z,98875.94
2023-02-08T10:44:05.715Z,98864.88
2023-02-08T10:46:42.377Z,98863.22
2023-02-08T10:49:38.056Z,98860.63
2023-02-08T10:52:05.764Z,98845.78
2023-02-08T10:54:34.492Z,98846.78
2023-02-08T10:57:04.870Z,98851.09
2023-02-08T10:59:38.131Z,98849.50
2023-02-08T11:02:21.455Z,98842.09
2023-02-08T11:04:59.143Z,98848.22
2023-02-08T11:07:25.599Z,98839.84
2023-02-08T11:09:51.994Z,98849.56
2023-02-08T11:12:22.946Z,98844.13
2023-02-08T11:14:52.328Z,98837.09
2023-02-08T11:17:26.994Z,98815.63
2023-02-08T11:19:53.742Z,98823.28
2023-02-08T11:22:23.027Z,98833.31
2023-02-08T11:25:01.488Z,98832.44
2023-02-08T11:27:30.656Z,98829.38
2023-02-08T11:30:15.693Z,98831.38
2023-02-08T11:32:44.236Z,98828.22
2023-02-08T11:35:24.795Z,98823.31
2023-02-08T11:37:53.834Z,98810.81
2023-02-08T11:40:28.574Z,98826.72
2023-02-08T11:42:56.318Z,98810.63
2023-02-08T11:45:30.228Z,98826.75
2023-02-08T11:47:57.232Z,98825.75
2023-02-08T11:50:29.537Z,98816.44
2023-02-08T11:53:17.563Z,98810.25
2023-02-08T11:55:44.287Z,98809.88
2023-02-08T11:58:23.216Z,98801.56
2023-02-08T12:01:30.959Z,98803.63
2023-02-08T12:04:00.228Z,98788.09
2023-02-08T12:06:32.333Z,98790.69
2023-02-08T12:09:18.208Z,98792.66
2023-02-08T12:11:50.353Z,98781.22
2023-02-08T12:14:44.021Z,98792.06
2023-02-08T12:17:39.690Z,98786.59
2023-02-08T12:20:25.814Z,98774.16
2023-02-08T12:23:07.858Z,98766.81
2023-02-08T12:25:44.631Z,98758.66
2023-02-08T12:28:32.960Z,98747.59
2023-02-08T12:31:17.769Z,98749.72
2023-02-08T12:34:12.571Z,98744.84
2023-02-08T12:37:14.432Z,98740.41
2023-02-08T12:40:21.686Z,98746.50
2023-02-08T12:43:07.153Z,98736.31
2023-02-08T12:45:51.958Z,98738.03
2023-02-08T12:48:35.922Z,98742.13
2023-02-08T12:51:18.700Z,98739.53
2023-02-08T12:53:57.698Z,98743.16
2023-02-08T12:56:31.780Z,98737.97
2023-02-08T12:59:11.705Z,98733.63
2023-02-08T13:01:46.545Z,98723.25
2023-02-08T13:04:38.673Z,98719.06
2023-02-08T13:07:38.671Z,98692.91
2023-02-08T13:10:26.848Z,98711.53
2023-02-08T13:12:58.124Z,98704.94
2023-02-08T13:16:09.316Z,98714.28
2023-02-08T13:18:43.455Z,98710.09
2023-02-08T13:21:20.602Z,98708.03
2023-02-08T13:23:52.801Z,98706.72
2023-02-08T13:26:23.013Z,98710.59
2023-02-08T13:28:52.404Z,98719.66
2023-02-08T13:31:31.161Z,98709.19
2023-02-08T13:34:45.177Z,98707.00
2023-02-08T13:37:33.243Z,98707.66
2023-02-08T13:40:28.024Z,98700.59
2023-02-08T13:43:04.929Z,98689.31
2023-02-08T13:45:43.566Z,98693.06
2023-02-08T13:48:16.659Z,98681.63
2023-02-08T13:50:48.131Z,98698.09
2023-02-08T13:53:17.298Z,98694.88
2023-02-08T13:55:56.498Z,98689.91
2023-02-08T13:58:48.146Z,98694.53
2023-02-08T14:01:16.234Z,98683.38
2023-02-08T14:03:43.088Z,98683.75
2023-02-08T14:06:22.367Z,98685.22
2023-02-08T14:09:20.054Z,98679.47
2023-02-08T14:11:51.156Z,98680.63
2023-02-08T14:14:37.755Z,98682.72
2023-02-08T14:17:05.133Z,98668.25
2023-02-08T14:19:33.242Z,98677.28
2023-02-08T14:22:11.624Z,98665.31
2023-02-08T14:24:49.554Z,98661.69
2023-02-08T14:27:42.461Z,98677.38
2023-02-08T14:30:23.428Z,98667.16
2023-02-08T14:33:05.029Z,98676.88
2023-02-08T14:35:36.784Z,98671.47
2023-02-08T14:38:25.007Z,98670.16
2023-02-08T14:41:01.825Z,98673.94
2023-02-08T14:43:33.921Z,98666.88
2023-02-08T14:46:37.795Z,98666.00
2023-02-08T14:49:13.624Z,98667.34
2023-02-08T14:51:46.957Z,98662.53
2023-02-08T14:54:41.732Z,98665.88
2023-02-08T14:57:25.189Z,98662.06
2023-02-08T14:59:53.773Z,98670.81
2023-02-08T15:02:31.349Z,98673.91
2023-02-08T15:04:59.745Z,98662.38
2023-02-08T15:07:33.586Z,98662.69
2023-02-08T15:10:05.606Z,98657.00
2023-02-08T15:12:33.925Z,98665.59
2023-02-08T15:15:02.867Z,98663.00
2023-02-08T15:17:47.619Z,98647.13
2023-02-08T15:20:29.608Z,98640.28
2023-02-08T15:23:00.714Z,98640.88
2023-02-08T15:25:35.416Z,98637.13
2023-02-08T15:28:30.807Z,98626.19
2023-02-08T15:31:09.252Z,98628.56
2023-02-08T15:33:39.307Z,98634.38
2023-02-08T15:36:08.946Z,98623.13
2023-02-08T15:38:38.554Z,98644.75
2023-02-08T15:41:10.841Z,98635.72
2023-02-08T15:43:39.654Z,98640.06
2023-02-08T15:46:22.245Z,98644.41
2023-02-08T15:48:49.974Z,98649.41
2023-02-08T15:51:20.214Z,98654.66
2023-02-08T15:53:50.445Z,98645.34
2023-02-08T15:56:35.967Z,98652.47
2023-02-08T15:59:05.781Z,98662.50
2023-02-08T16:01:32.494Z,98661.78
2023-02-08T16:04:05.872Z,98651.19
2023-02-08T16:06:40.461Z,98654.56
2023-02-08T16:09:07.431Z,98649.25
2023-02-08T16:11:36.149Z,98658.22
2023-02-08T16:14:04.804Z,98646.88
2023-02-08T16:16:45.017Z,98661.44
2023-02-08T16:19:37.647Z,98656.66
2023-02-08T16:22:13.238Z,98660.53
2023-02-08T16:24:39.885Z,98651.44
2023-02-08T16:27:15.096Z,98657.75
2023-02-08T16:29:46.531Z,98661.34
2023-02-08T16:32:29.965Z,98670.53
2023-02-08T16:34:56.533Z,98666.84
2023-02-08T16:37:32.599Z,98662.00
2023-02-08T16:40:06.568Z,98667.25
2023-02-08T16:42:35.756Z,98664.66
2023-02-08T16:45:03.230Z,98677.69
2023-02-08T16:47:37.444Z,98662.63
2023-02-08T16:50:07.988Z,98675.81
2023-02-08T16:52:34.829Z,98660.56
2023-02-08T16:55:01.656Z,98671.78
2023-02-08T16:57:52.831Z,98675.84
2023-02-08T17:00:21.785Z,98662.75
2023-02-08T17:02:49.167Z,98665.47
2023-02-08T17:05:18.148Z,98676.00
2023-02-08T17:07:44.752Z,98664.56
2023-02-08T17:10:28.894Z,98665.53
2023-02-08T17:13:09.792Z,98669.09
2023-02-08T17:15:43.590Z,98666.81
2023-02-08T17:18:13.335Z,98657.44
2023-02-08T17:20:39.992Z,98668.84
2023-02-08T17:23:07.126Z,98668.59
2023-02-08T17:25:34.752Z,98675.34
2023-02-08T17:28:06.897Z,98676.66
2023-02-08T17:30:39.373Z,98677.09
2023-02-08T17:33:10.106Z,98684.56
2023-02-08T17:35:38.175Z,98679.09
2023-02-08T17:38:06.689Z,98676.78
2023-02-08T17:40:35.954Z,98692.25
2023-02-08T17:43:04.019Z,98669.72
2023-02-08T17:45:32.384Z,98681.50
2023-02-08T17:48:02.132Z,98671.38
2023-02-08T17:50:30.676Z,98672.06
2023-02-08T17:52:57.124Z,98670.97
2023-02-08T17:55:24.641Z,98680.44
2023-02-08T17:57:51.307Z,98663.47
2023-02-08T18:00:20.929Z,98662.78
2023-02-08T18:02:51.441Z,98668.34
2023-02-08T18:05:24.126Z,98662.06
2023-02-08T18:07:51.964Z,98667.50
2023-02-08T18:10:19.000Z,98668.31
2023-02-08T18:12:45.775Z,98665.63
2023-02-08T18:15:16.780Z,98665.31
2023-02-08T18:17:44.043Z,98654.31
2023-02-08T18:20:11.628Z,98655.28
2023-02-08T18:22:38.158Z,98656.44
2023-02-08T18:25:05.763Z,98651.41
2023-02-08T18:27:33.559Z,98653.16
2023-02-08T18:30:00.016Z,98655.97
2023-02-08T18:32:28.102Z,98649.41
2023-02-08T18:34:55.252Z,98656.41
2023-02-08T18:37:22.094Z,98656.50
2023-02-08T18:39:49.445Z,98653.19
2023-02-08T18:42:16.067Z,98661.72
2023-02-08T18:44:42.487Z,98664.41
2023-02-08T18:47:11.140Z,98657.06
2023-02-08T18:49:40.791Z,98659.84
2023-02-08T18:52:09.910Z,98660.59
2023-02-08T18:54:38.342Z,98659.19
2023-02-08T18:57:09.757Z,98647.63
2023-02-08T18:59:36.986Z,98646.06
2023-02-08T19:02:07.046Z,98644.97
2023-02-08T19:04:38.992Z,98647.75
2023-02-08T19:07:06.497Z,98650.34
2023-02-08T19:09:37.517Z,98642.66
2023-02-08T19:12:04.231Z,98650.97
2023-02-08T19:14:30.696Z,98641.88
2023-02-08T19:16:57.195Z,98645.78
2023-02-08T19:19:23.683Z,98641.97
2023-02-08T19:21:50.136Z,98643.59
2023-02-08T19:24:17.042Z,98637.63
2023-02-08T19:26:43.495Z,98639.66
2023-02-08T19:29:15.761Z,98635.72
2023-02-08T19:31:44.921Z,98635.06
2023-02-08T19:34:12.493Z,98626.47
2023-02-08T19:36:49.426Z,98635.84
2023-02-08T19:39:18.150Z,98636.94
2023-02-08T19:41:45.527Z,98638.53
2023-02-08T19:44:15.257Z,98632.59
2023-02-08T19:46:44.139Z,98632.88
2023-02-08T19:49:13.048Z,98628.41
2023-02-08T19:51:40.488Z,98626.06
2023-02-08T19:54:10.199Z,98629.59
2023-02-08T19:56:36.962Z,98627.72
2023-02-08T19:59:06.792Z,98622.03
2023-02-08T20:01:35.350Z,98616.03
2023-02-08T20:04:03.280Z,98613.59
2023-02-08T20:06:33.778Z,98620.25
2023-02-08T20:09:03.974Z,98606.94
2023-02-08T20:11:33.989Z,98618.91
2023-02-08T20:14:01.541Z,98611.16
2023-02-08T20:16:31.580Z,98610.56
2023-02-08T20:18:58.673Z,98614.69
2023-02-08T20:21:30.928Z,98616.06
2023-02-08T20:23:57.433Z,98615.66
2023-02-08T20:26:26.844Z,98614.69
2023-02-08T20:28:57.310Z,98621.84
2023-02-08T20:31:32.793Z,98610.75
2023-02-08T20:34:03.387Z,98607.97
2023-02-08T20:36:33.678Z,98611.66
2023-02-08T20:39:01.255Z,98613.81
2023-02-08T20:41:33.696Z,98617.78
2023-02-08T20:44:01.963Z,98601.66
2023-02-08T20:46:33.830Z,98615.03
2023-02-08T20:49:02.443Z,98619.03
2023-02-08T20:51:29.918Z,98609.56
2023-02-08T20:53:59.441Z,98611.06
2023-02-08T20:56:38.075Z,98603.34
2023-02-08T20:59:08.223Z,98602.69
2023-02-08T21:01:36.797Z,98604.25
2023-02-08T21:04:04.406Z,98595.47
2023-02-08T21:06:36.811Z,98600.25
2023-02-08T21:09:12.002Z,98608.97
2023-02-08T21:11:39.517Z,98602.16
2023-02-08T21:14:07.368Z,98599.50
2023-02-08T21:16:34.236Z,98597.31
2023-02-08T21:19:00.798Z,98596.50
2023-02-08T21:21:28.593Z,98590.47
2023-02-08T21:23:56.772Z,98591.44
2023-02-08T21:26:25.820Z,98588.00
2023-02-08T21:28:54.504Z,98587.91
2023-02-08T21:31:22.566Z,98599.28
2023-02-08T21:33:49.988Z,98588.13
2023-02-08T21:36:19.360Z,98588.91
2023-02-08T21:38:47.477Z,98589.84
2023-02-08T21:41:24.613Z,98589.34
2023-02-08T21:43:54.256Z,98577.50
2023-02-08T21:46:21.346Z,98579.00
2023-02-08T21:49:06.242Z,98579.94
2023-02-08T21:51:51.150Z,98582.50
2023-02-08T21:54:39.530Z,98582.06
2023-02-08T21:57:08.528Z,98588.44
2023-02-08T21:59:37.089Z,98586.91
2023-02-08T22:02:08.242Z,98587.03
2023-02-08T22:04:36.215Z,98586.50
2023-02-08T22:07:04.570Z,98583.25
2023-02-08T22:09:31.468Z,98579.91
2023-02-08T22:11:58.791Z,98588.53
2023-02-08T22:14:25.315Z,98584.97
2023-02-08T22:16:51.908Z,98580.56
2023-02-08T22:19:18.541Z,98581.53
2023-02-08T22:21:45.000Z,98580.81
2023-02-08T22:24:11.489Z,98579.75
2023-02-08T22:26:39.496Z,98584.81
2023-02-08T22:29:06.003Z,98577.16
2023-02-08T22:31:32.517Z,98572.00
2023-02-08T22:33:59.198Z,98577.06
2023-02-08T22:36:25.615Z,98569.38
2023-02-08T22:38:52.123Z,98566.50
2023-02-08T22:41:18.802Z,98562.97
2023-02-08T22:43:45.893Z,98563.09
2023-02-08T22:46:12.815Z,98567.34
2023-02-08T22:48:39.340Z,98559.47
2023-02-08T22:51:12.731Z,98553.63
2023-02-08T22:53:39.208Z,98556.44
2023-02-08T22:56:05.937Z,98559.44
2023-02-08T22:58:32.654Z,98556.09
2023-02-08T23:00:59.261Z,98557.91
2023-02-08T23:03:26.532Z,98567.72
2023-02-08T23:05:53.568Z,98558.38
2023-02-08T23:08:22.196Z,98545.63
2023-02-08T23:10:48.886Z,98545.47
2023-02-08T23:13:15.392Z,98548.00
2023-02-08T23:15:43.850Z,98545.72
2023-02-08T23:18:11.116Z,98546.72
2023-02-08T23:20:41.263Z,98547.84
2023-02-08T23:23:08.014Z,98551.16
2023-02-08T23:25:34.596Z,98552.03
2023-02-08T23:28:01.109Z,98545.47
2023-02-08T23:30:27.586Z,98552.41
2023-02-08T23:32:54.315Z,98562.81
2023-02-08T23:35:20.844Z,98548.38
2023-02-08T23:37:47.637Z,98544.00
2023-02-08T23:40:14.144Z,98549.84
2023-02-08T23:42:40.601Z,98544.72
2023-02-08T23:45:07.838Z,98543.81
2023-02-08T23:47:34.775Z,98528.66
2023-02-08T23:50:01.195Z,98527.69
2023-02-08T23:52:27.644Z,98526.78
2023-02-08T23:54:54.128Z,98532.78
2023-02-08T23:57:20.643Z,98530.13
2023-02-08T23:59:47.222Z,98530.06
